sensor_id;sensor_type;location;lat;lon;timestamp;temperature;humidity
11446;DHT22;5779;64.178;15.432;2024-02-04T00:02:35;0.10;99.90
11446;DHT22;5779;64.178;15.432;2024-02-04T00:05:22;0.20;99.90
11446;DHT22;5779;64.178;15.432;2024-02-04T00:08:09;0.10;99.90
11446;DHT22;5779;64.178;15.432;2024-02-04T00:10:56;0.00;99.90
11446;DHT22;5779;64.178;15.432;2024-02-04T00:13:44;0.00;99.90
11446;DHT22;5779;64.178;15.432;2024-02-04T00:16:30;0.00;99.90
11446;DHT22;5779;64.178;15.432;2024-02-04T00:19:17;0.00;99.90
11446;DHT22;5779;64.178;15.432;2024-02-04T00:22:04;0.00;99.90
11446;DHT22;5779;64.178;15.432;2024-02-04T00:24:51;0.10;99.90
11446;DHT22;5779;64.178;15.432;2024-02-04T00:27:37;0.10;99.90
11446;DHT22;5779;64.178;15.432;2024-02-04T00:30:26;0.10;99.90
11446;DHT22;5779;64.178;15.432;2024-02-04T00:33:14;0.10;99.90
11446;DHT22;5779;64.178;15.432;2024-02-04T00:36:01;0.10;99.90
11446;DHT22;5779;64.178;15.432;2024-02-04T00:38:48;0.10;99.90
11446;DHT22;5779;64.178;15.432;2024-02-04T00:41:35;0.10;99.90
11446;DHT22;5779;64.178;15.432;2024-02-04T00:44:21;0.00;99.90
11446;DHT22;5779;64.178;15.432;2024-02-04T00:47:10;0.00;99.90
11446;DHT22;5779;64.178;15.432;2024-02-04T00:49:56;-0.10;99.90
11446;DHT22;5779;64.178;15.432;2024-02-04T00:52:43;-0.10;99.90
11446;DHT22;5779;64.178;15.432;2024-02-04T00:55:30;-0.20;99.90
11446;DHT22;5779;64.178;15.432;2024-02-04T00:58:17;-0.10;99.90
11446;DHT22;5779;64.178;15.432;2024-02-04T01:01:04;-0.20;99.90
11446;DHT22;5779;64.178;15.432;2024-02-04T01:03:52;-0.20;99.90
11446;DHT22;5779;64.178;15.432;2024-02-04T01:06:38;-0.20;99.90
11446;DHT22;5779;64.178;15.432;2024-02-04T01:09:25;-0.30;99.90
11446;DHT22;5779;64.178;15.432;2024-02-04T01:12:13;-0.30;99.90
11446;DHT22;5779;64.178;15.432;2024-02-04T01:15:06;-0.40;99.90
11446;DHT22;5779;64.178;15.432;2024-02-04T01:17:59;-0.50;99.90
11446;DHT22;5779;64.178;15.432;2024-02-04T01:20:49;-0.60;99.90
11446;DHT22;5779;64.178;15.432;2024-02-04T01:23:42;-0.70;99.90
11446;DHT22;5779;64.178;15.432;2024-02-04T01:26:35;-0.70;99.90
11446;DHT22;5779;64.178;15.432;2024-02-04T01:29:27;-0.80;99.90
11446;DHT22;5779;64.178;15.432;2024-02-04T01:32:20;-0.80;99.90
11446;DHT22;5779;64.178;15.432;2024-02-04T01:35:12;-0.70;99.90
11446;DHT22;5779;64.178;15.432;2024-02-04T01:38:05;-0.70;99.90
11446;DHT22;5779;64.178;15.432;2024-02-04T01:40:52;-0.70;99.90
11446;DHT22;5779;64.178;15.432;2024-02-04T01:43:40;-0.60;99.90
11446;DHT22;5779;64.178;15.432;2024-02-04T01:46:27;-0.60;99.90
11446;DHT22;5779;64.178;15.432;2024-02-04T01:49:20;-0.70;99.90
11446;DHT22;5779;64.178;15.432;2024-02-04T01:52:13;-0.60;99.90
11446;DHT22;5779;64.178;15.432;2024-02-04T01:55:05;-0.60;99.90
11446;DHT22;5779;64.178;15.432;2024-02-04T01:57:54;-0.60;99.90
11446;DHT22;5779;64.178;15.432;2024-02-04T02:00:43;-0.50;99.90
11446;DHT22;5779;64.178;15.432;2024-02-04T02:03:32;-0.50;99.90
11446;DHT22;5779;64.178;15.432;2024-02-04T02:06:24;-0.50;99.90
11446;DHT22;5779;64.178;15.432;2024-02-04T02:09:17;-0.50;99.90
11446;DHT22;5779;64.178;15.432;2024-02-04T02:12:13;-0.50;99.90
11446;DHT22;5779;64.178;15.432;2024-02-04T02:15:10;-0.50;99.90
11446;DHT22;5779;64.178;15.432;2024-02-04T02:18:06;-0.50;99.90
11446;DHT22;5779;64.178;15.432;2024-02-04T02:21:19;-0.50;99.90
11446;DHT22;5779;64.178;15.432;2024-02-04T02:24:27;-0.50;99.90
11446;DHT22;5779;64.178;15.432;2024-02-04T02:27:18;-0.60;99.90
11446;DHT22;5779;64.178;15.432;2024-02-04T02:30:07;-0.60;99.90
11446;DHT22;5779;64.178;15.432;2024-02-04T02:32:58;-0.60;99.90
11446;DHT22;5779;64.178;15.432;2024-02-04T02:35:56;-0.60;99.90
11446;DHT22;5779;64.178;15.432;2024-02-04T02:38:56;-0.60;99.90
11446;DHT22;5779;64.178;15.432;2024-02-04T02:41:49;-0.60;99.90
11446;DHT22;5779;64.178;15.432;2024-02-04T02:44:41;-0.60;99.90
11446;DHT22;5779;64.178;15.432;2024-02-04T02:47:29;-0.70;99.90
11446;DHT22;5779;64.178;15.432;2024-02-04T02:50:16;-0.80;99.90
11446;DHT22;5779;64.178;15.432;2024-02-04T02:53:03;-0.90;99.90
11446;DHT22;5779;64.178;15.432;2024-02-04T02:55:53;-1.00;99.90
11446;DHT22;5779;64.178;15.432;2024-02-04T02:58:44;-1.10;99.90
11446;DHT22;5779;64.178;15.432;2024-02-04T03:01:32;-1.20;99.90
11446;DHT22;5779;64.178;15.432;2024-02-04T03:04:24;-1.30;99.90
11446;DHT22;5779;64.178;15.432;2024-02-04T03:07:16;-1.30;99.90
11446;DHT22;5779;64.178;15.432;2024-02-04T03:10:04;-1.30;99.90
11446;DHT22;5779;64.178;15.432;2024-02-04T03:12:53;-1.40;99.90
11446;DHT22;5779;64.178;15.432;2024-02-04T03:15:41;-1.40;99.90
11446;DHT22;5779;64.178;15.432;2024-02-04T03:18:28;-1.40;99.90
11446;DHT22;5779;64.178;15.432;2024-02-04T03:21:15;-1.50;99.90
11446;DHT22;5779;64.178;15.432;2024-02-04T03:24:03;-1.50;99.90
11446;DHT22;5779;64.178;15.432;2024-02-04T03:26:49;-1.50;99.90
11446;DHT22;5779;64.178;15.432;2024-02-04T03:29:42;-1.40;99.90
11446;DHT22;5779;64.178;15.432;2024-02-04T03:32:31;-1.40;99.90
11446;DHT22;5779;64.178;15.432;2024-02-04T03:35:19;-1.40;99.90
11446;DHT22;5779;64.178;15.432;2024-02-04T03:38:05;-1.30;99.90
11446;DHT22;5779;64.178;15.432;2024-02-04T03:40:58;-1.30;99.90
11446;DHT22;5779;64.178;15.432;2024-02-04T03:43:45;-1.30;99.90
11446;DHT22;5779;64.178;15.432;2024-02-04T03:46:35;-1.20;99.90
11446;DHT22;5779;64.178;15.432;2024-02-04T03:49:26;-1.10;99.90
11446;DHT22;5779;64.178;15.432;2024-02-04T03:52:17;-1.10;99.90
11446;DHT22;5779;64.178;15.432;2024-02-04T03:55:07;-1.00;99.90
11446;DHT22;5779;64.178;15.432;2024-02-04T03:57:56;-1.00;99.90
11446;DHT22;5779;64.178;15.432;2024-02-04T04:00:48;-1.00;99.90
11446;DHT22;5779;64.178;15.432;2024-02-04T04:03:35;-1.10;99.90
11446;DHT22;5779;64.178;15.432;2024-02-04T04:06:27;-1.00;99.90
11446;DHT22;5779;64.178;15.432;2024-02-04T04:09:14;-1.10;99.90
11446;DHT22;5779;64.178;15.432;2024-02-04T04:12:01;-1.00;99.90
11446;DHT22;5779;64.178;15.432;2024-02-04T04:14:47;-1.00;99.90
11446;DHT22;5779;64.178;15.432;2024-02-04T04:17:36;-1.00;99.90
11446;DHT22;5779;64.178;15.432;2024-02-04T04:20:25;-0.90;99.90
11446;DHT22;5779;64.178;15.432;2024-02-04T04:23:14;-0.90;99.90
11446;DHT22;5779;64.178;15.432;2024-02-04T04:26:08;-0.80;99.90
11446;DHT22;5779;64.178;15.432;2024-02-04T04:28:55;-0.90;99.90
11446;DHT22;5779;64.178;15.432;2024-02-04T04:31:47;-0.80;99.90
11446;DHT22;5779;64.178;15.432;2024-02-04T04:34:34;-0.80;99.90
11446;DHT22;5779;64.178;15.432;2024-02-04T04:37:21;-0.70;99.90
11446;DHT22;5779;64.178;15.432;2024-02-04T04:40:11;-0.80;99.90
11446;DHT22;5779;64.178;15.432;2024-02-04T04:42:58;-0.80;99.90
11446;DHT22;5779;64.178;15.432;2024-02-04T04:45:50;-0.80;99.90
11446;DHT22;5779;64.178;15.432;2024-02-04T04:48:37;-0.80;99.90
11446;DHT22;5779;64.178;15.432;2024-02-04T04:51:24;-0.70;99.90
11446;DHT22;5779;64.178;15.432;2024-02-04T04:54:11;-0.80;99.90
11446;DHT22;5779;64.178;15.432;2024-02-04T04:57:03;-0.70;99.90
11446;DHT22;5779;64.178;15.432;2024-02-04T04:59:52;-0.80;99.90
11446;DHT22;5779;64.178;15.432;2024-02-04T05:02:40;-0.80;99.90
11446;DHT22;5779;64.178;15.432;2024-02-04T05:05:28;-0.90;99.90
11446;DHT22;5779;64.178;15.432;2024-02-04T05:08:15;-1.00;99.90
11446;DHT22;5779;64.178;15.432;2024-02-04T05:11:02;-1.00;99.90
11446;DHT22;5779;64.178;15.432;2024-02-04T05:13:50;-1.00;99.90
11446;DHT22;5779;64.178;15.432;2024-02-04T05:16:37;-1.10;99.90
11446;DHT22;5779;64.178;15.432;2024-02-04T05:19:23;-1.00;99.90
11446;DHT22;5779;64.178;15.432;2024-02-04T05:22:10;-1.10;99.90
11446;DHT22;5779;64.178;15.432;2024-02-04T05:24:57;-1.00;99.90
11446;DHT22;5779;64.178;15.432;2024-02-04T05:27:44;-1.10;99.90
11446;DHT22;5779;64.178;15.432;2024-02-04T05:30:32;-1.00;99.90
11446;DHT22;5779;64.178;15.432;2024-02-04T05:33:18;-1.20;99.90
11446;DHT22;5779;64.178;15.432;2024-02-04T05:36:05;-1.20;99.90
11446;DHT22;5779;64.178;15.432;2024-02-04T05:38:52;-1.20;99.90
11446;DHT22;5779;64.178;15.432;2024-02-04T05:41:39;-1.10;99.90
11446;DHT22;5779;64.178;15.432;2024-02-04T05:44:26;-1.20;99.90
11446;DHT22;5779;64.178;15.432;2024-02-04T05:47:15;-1.30;99.90
11446;DHT22;5779;64.178;15.432;2024-02-04T05:50:02;-1.30;99.90
11446;DHT22;5779;64.178;15.432;2024-02-04T05:52:50;-1.30;99.90
11446;DHT22;5779;64.178;15.432;2024-02-04T05:55:42;-1.40;99.90
11446;DHT22;5779;64.178;15.432;2024-02-04T05:58:31;-1.40;99.90
11446;DHT22;5779;64.178;15.432;2024-02-04T06:01:20;-1.40;99.90
11446;DHT22;5779;64.178;15.432;2024-02-04T06:04:13;-1.40;99.90
11446;DHT22;5779;64.178;15.432;2024-02-04T06:07:01;-1.50;99.90
11446;DHT22;5779;64.178;15.432;2024-02-04T06:09:48;-1.50;99.90
11446;DHT22;5779;64.178;15.432;2024-02-04T06:12:38;-1.50;99.90
11446;DHT22;5779;64.178;15.432;2024-02-04T06:15:29;-1.40;99.90
11446;DHT22;5779;64.178;15.432;2024-02-04T06:18:17;-1.50;99.90
11446;DHT22;5779;64.178;15.432;2024-02-04T06:21:08;-1.50;99.90
11446;DHT22;5779;64.178;15.432;2024-02-04T06:24:00;-1.60;99.90
11446;DHT22;5779;64.178;15.432;2024-02-04T06:26:49;-1.60;99.90
11446;DHT22;5779;64.178;15.432;2024-02-04T06:29:42;-1.60;99.90
11446;DHT22;5779;64.178;15.432;2024-02-04T06:32:34;-1.60;99.90
11446;DHT22;5779;64.178;15.432;2024-02-04T06:35:27;-1.60;99.90
11446;DHT22;5779;64.178;15.432;2024-02-04T06:38:22;-1.60;99.90
11446;DHT22;5779;64.178;15.432;2024-02-04T06:41:15;-1.70;99.90
11446;DHT22;5779;64.178;15.432;2024-02-04T06:44:08;-1.60;99.90
11446;DHT22;5779;64.178;15.432;2024-02-04T06:46:58;-1.70;99.90
11446;DHT22;5779;64.178;15.432;2024-02-04T06:49:51;-1.70;99.90
11446;DHT22;5779;64.178;15.432;2024-02-04T06:52:42;-1.60;99.90
11446;DHT22;5779;64.178;15.432;2024-02-04T06:55:38;-1.70;99.90
11446;DHT22;5779;64.178;15.432;2024-02-04T06:58:31;-1.50;99.90
11446;DHT22;5779;64.178;15.432;2024-02-04T07:01:22;-1.60;99.90
11446;DHT22;5779;64.178;15.432;2024-02-04T07:04:09;-1.60;99.90
11446;DHT22;5779;64.178;15.432;2024-02-04T07:06:56;-1.60;99.90
11446;DHT22;5779;64.178;15.432;2024-02-04T07:09:43;-1.60;99.90
11446;DHT22;5779;64.178;15.432;2024-02-04T07:12:32;-1.60;99.90
11446;DHT22;5779;64.178;15.432;2024-02-04T07:15:22;-1.50;99.90
11446;DHT22;5779;64.178;15.432;2024-02-04T07:18:09;-1.50;99.90
11446;DHT22;5779;64.178;15.432;2024-02-04T07:20:56;-1.60;99.90
11446;DHT22;5779;64.178;15.432;2024-02-04T07:23:43;-1.60;99.90
11446;DHT22;5779;64.178;15.432;2024-02-04T07:26:30;-1.70;99.90
11446;DHT22;5779;64.178;15.432;2024-02-04T07:29:18;-1.70;99.90
11446;DHT22;5779;64.178;15.432;2024-02-04T07:32:05;-1.70;99.90
11446;DHT22;5779;64.178;15.432;2024-02-04T07:34:52;-1.70;99.90
11446;DHT22;5779;64.178;15.432;2024-02-04T07:37:40;-1.80;99.90
11446;DHT22;5779;64.178;15.432;2024-02-04T07:40:28;-1.70;99.90
11446;DHT22;5779;64.178;15.432;2024-02-04T07:43:15;-1.80;99.90
11446;DHT22;5779;64.178;15.432;2024-02-04T07:46:05;-1.80;99.90
11446;DHT22;5779;64.178;15.432;2024-02-04T07:48:55;-1.90;99.90
11446;DHT22;5779;64.178;15.432;2024-02-04T07:51:42;-1.90;99.90
11446;DHT22;5779;64.178;15.432;2024-02-04T07:54:30;-1.90;99.90
11446;DHT22;5779;64.178;15.432;2024-02-04T07:57:18;-2.00;99.90
11446;DHT22;5779;64.178;15.432;2024-02-04T08:00:07;-1.90;99.90
11446;DHT22;5779;64.178;15.432;2024-02-04T08:02:58;-1.90;99.90
11446;DHT22;5779;64.178;15.432;2024-02-04T08:05:48;-1.80;99.90
11446;DHT22;5779;64.178;15.432;2024-02-04T08:08:35;-1.90;99.90
11446;DHT22;5779;64.178;15.432;2024-02-04T08:11:21;-1.90;99.90
11446;DHT22;5779;64.178;15.432;2024-02-04T08:14:08;-1.90;99.90
11446;DHT22;5779;64.178;15.432;2024-02-04T08:16:57;-1.80;99.90
11446;DHT22;5779;64.178;15.432;2024-02-04T08:19:45;-1.80;99.90
11446;DHT22;5779;64.178;15.432;2024-02-04T08:22:33;-1.80;99.90
11446;DHT22;5779;64.178;15.432;2024-02-04T08:25:22;-1.80;99.90
11446;DHT22;5779;64.178;15.432;2024-02-04T08:28:09;-1.70;99.90
11446;DHT22;5779;64.178;15.432;2024-02-04T08:30:56;-1.80;99.90
11446;DHT22;5779;64.178;15.432;2024-02-04T08:33:43;-1.70;99.90
11446;DHT22;5779;64.178;15.432;2024-02-04T08:36:31;-1.80;99.90
11446;DHT22;5779;64.178;15.432;2024-02-04T08:39:17;-1.80;99.90
11446;DHT22;5779;64.178;15.432;2024-02-04T08:42:05;-1.80;99.90
11446;DHT22;5779;64.178;15.432;2024-02-04T08:44:57;-1.70;99.90
11446;DHT22;5779;64.178;15.432;2024-02-04T08:47:50;-1.80;99.90
11446;DHT22;5779;64.178;15.432;2024-02-04T08:50:43;-1.70;99.90
11446;DHT22;5779;64.178;15.432;2024-02-04T08:53:33;-1.60;99.90
11446;DHT22;5779;64.178;15.432;2024-02-04T08:56:26;-1.60;99.90
11446;DHT22;5779;64.178;15.432;2024-02-04T08:59:19;-1.60;99.90
11446;DHT22;5779;64.178;15.432;2024-02-04T09:02:10;-1.50;99.90
11446;DHT22;5779;64.178;15.432;2024-02-04T09:05:02;-1.60;99.90
11446;DHT22;5779;64.178;15.432;2024-02-04T09:07:55;-1.50;99.90
11446;DHT22;5779;64.178;15.432;2024-02-04T09:10:47;-1.60;99.90
11446;DHT22;5779;64.178;15.432;2024-02-04T09:13:40;-1.50;99.90
11446;DHT22;5779;64.178;15.432;2024-02-04T09:16:33;-1.50;99.90
11446;DHT22;5779;64.178;15.432;2024-02-04T09:19:26;-1.50;99.90
11446;DHT22;5779;64.178;15.432;2024-02-04T09:22:15;-1.40;99.90
11446;DHT22;5779;64.178;15.432;2024-02-04T09:25:07;-1.40;99.90
11446;DHT22;5779;64.178;15.432;2024-02-04T09:27:56;-1.40;99.90
11446;DHT22;5779;64.178;15.432;2024-02-04T09:30:44;-1.40;99.90
11446;DHT22;5779;64.178;15.432;2024-02-04T09:33:33;-1.40;99.90
11446;DHT22;5779;64.178;15.432;2024-02-04T09:36:20;-1.40;99.90
11446;DHT22;5779;64.178;15.432;2024-02-04T09:39:09;-1.40;99.90
11446;DHT22;5779;64.178;15.432;2024-02-04T09:41:58;-1.50;99.90
11446;DHT22;5779;64.178;15.432;2024-02-04T09:44:49;-1.50;99.90
11446;DHT22;5779;64.178;15.432;2024-02-04T09:47:40;-1.50;99.90
11446;DHT22;5779;64.178;15.432;2024-02-04T09:50:29;-1.60;99.90
11446;DHT22;5779;64.178;15.432;2024-02-04T09:53:20;-1.50;99.90
11446;DHT22;5779;64.178;15.432;2024-02-04T09:56:12;-1.60;99.90
11446;DHT22;5779;64.178;15.432;2024-02-04T09:59:01;-1.50;99.90
11446;DHT22;5779;64.178;15.432;2024-02-04T10:01:51;-1.60;99.90
11446;DHT22;5779;64.178;15.432;2024-02-04T10:04:41;-1.60;99.90
11446;DHT22;5779;64.178;15.432;2024-02-04T10:07:28;-1.60;99.90
11446;DHT22;5779;64.178;15.432;2024-02-04T10:10:18;-1.60;99.90
11446;DHT22;5779;64.178;15.432;2024-02-04T10:13:10;-1.60;99.90
11446;DHT22;5779;64.178;15.432;2024-02-04T10:15:59;-1.60;99.90
11446;DHT22;5779;64.178;15.432;2024-02-04T10:18:54;-1.60;99.90
11446;DHT22;5779;64.178;15.432;2024-02-04T10:21:43;-1.50;99.90
11446;DHT22;5779;64.178;15.432;2024-02-04T10:24:35;-1.50;99.90
11446;DHT22;5779;64.178;15.432;2024-02-04T10:27:25;-1.50;99.90
11446;DHT22;5779;64.178;15.432;2024-02-04T10:30:19;-1.50;99.90
11446;DHT22;5779;64.178;15.432;2024-02-04T10:33:08;-1.50;99.90
11446;DHT22;5779;64.178;15.432;2024-02-04T10:36:00;-1.40;99.90
11446;DHT22;5779;64.178;15.432;2024-02-04T10:38:50;-1.40;99.90
11446;DHT22;5779;64.178;15.432;2024-02-04T10:41:42;-1.40;99.90
11446;DHT22;5779;64.178;15.432;2024-02-04T10:44:36;-1.50;99.90
11446;DHT22;5779;64.178;15.432;2024-02-04T10:47:28;-1.40;99.90
11446;DHT22;5779;64.178;15.432;2024-02-04T10:50:20;-1.40;99.90
11446;DHT22;5779;64.178;15.432;2024-02-04T10:53:14;-1.40;99.90
11446;DHT22;5779;64.178;15.432;2024-02-04T10:56:06;-1.40;99.90
11446;DHT22;5779;64.178;15.432;2024-02-04T10:58:55;-1.40;99.90
11446;DHT22;5779;64.178;15.432;2024-02-04T11:01:48;-1.30;99.90
11446;DHT22;5779;64.178;15.432;2024-02-04T11:04:38;-1.30;99.90
11446;DHT22;5779;64.178;15.432;2024-02-04T11:07:31;-1.30;99.90
11446;DHT22;5779;64.178;15.432;2024-02-04T11:10:22;-1.30;99.90
11446;DHT22;5779;64.178;15.432;2024-02-04T11:13:12;-1.30;99.90
11446;DHT22;5779;64.178;15.432;2024-02-04T11:16:04;-1.30;99.90
11446;DHT22;5779;64.178;15.432;2024-02-04T11:19:20;-1.30;99.90
11446;DHT22;5779;64.178;15.432;2024-02-04T11:22:34;-1.30;99.90
11446;DHT22;5779;64.178;15.432;2024-02-04T11:25:43;-1.30;99.90
11446;DHT22;5779;64.178;15.432;2024-02-04T11:28:36;-1.30;99.90
11446;DHT22;5779;64.178;15.432;2024-02-04T11:31:29;-1.30;99.90
11446;DHT22;5779;64.178;15.432;2024-02-04T11:34:21;-1.30;99.90
11446;DHT22;5779;64.178;15.432;2024-02-04T11:37:15;-1.30;99.90
11446;DHT22;5779;64.178;15.432;2024-02-04T11:40:13;-1.20;99.90
11446;DHT22;5779;64.178;15.432;2024-02-04T11:43:06;-1.20;99.90
11446;DHT22;5779;64.178;15.432;2024-02-04T11:45:55;-1.30;99.90
11446;DHT22;5779;64.178;15.432;2024-02-04T11:48:51;-1.30;99.90
11446;DHT22;5779;64.178;15.432;2024-02-04T11:51:39;-1.30;99.90
11446;DHT22;5779;64.178;15.432;2024-02-04T11:54:29;-1.30;99.90
11446;DHT22;5779;64.178;15.432;2024-02-04T11:57:17;-1.30;99.90
11446;DHT22;5779;64.178;15.432;2024-02-04T12:00:09;-1.30;99.90
11446;DHT22;5779;64.178;15.432;2024-02-04T12:03:02;-1.30;99.90
11446;DHT22;5779;64.178;15.432;2024-02-04T12:05:53;-1.30;99.90
11446;DHT22;5779;64.178;15.432;2024-02-04T12:08:46;-1.30;99.90
11446;DHT22;5779;64.178;15.432;2024-02-04T12:11:36;-1.30;99.90
11446;DHT22;5779;64.178;15.432;2024-02-04T12:14:25;-1.40;99.90
11446;DHT22;5779;64.178;15.432;2024-02-04T12:17:20;-1.30;99.90
11446;DHT22;5779;64.178;15.432;2024-02-04T12:20:11;-1.30;99.90
11446;DHT22;5779;64.178;15.432;2024-02-04T12:22:58;-1.40;99.90
11446;DHT22;5779;64.178;15.432;2024-02-04T12:25:47;-1.30;99.90
11446;DHT22;5779;64.178;15.432;2024-02-04T12:28:34;-1.30;99.90
11446;DHT22;5779;64.178;15.432;2024-02-04T12:31:21;-1.30;99.90
11446;DHT22;5779;64.178;15.432;2024-02-04T12:34:13;-1.30;99.90
11446;DHT22;5779;64.178;15.432;2024-02-04T12:37:01;-1.30;99.90
11446;DHT22;5779;64.178;15.432;2024-02-04T12:39:47;-1.30;99.90
11446;DHT22;5779;64.178;15.432;2024-02-04T12:42:35;-1.30;99.90
11446;DHT22;5779;64.178;15.432;2024-02-04T12:45:26;-1.30;99.90
11446;DHT22;5779;64.178;15.432;2024-02-04T12:48:18;-1.30;99.90
11446;DHT22;5779;64.178;15.432;2024-02-04T12:51:23;-1.30;99.90
11446;DHT22;5779;64.178;15.432;2024-02-04T12:54:15;-1.30;99.90
11446;DHT22;5779;64.178;15.432;2024-02-04T12:57:04;-1.20;99.90
11446;DHT22;5779;64.178;15.432;2024-02-04T13:00:04;-1.30;99.90
11446;DHT22;5779;64.178;15.432;2024-02-04T13:02:57;-1.20;99.90
11446;DHT22;5779;64.178;15.432;2024-02-04T13:05:45;-1.20;99.90
11446;DHT22;5779;64.178;15.432;2024-02-04T13:08:36;-1.20;99.90
11446;DHT22;5779;64.178;15.432;2024-02-04T13:11:26;-1.20;99.90
11446;DHT22;5779;64.178;15.432;2024-02-04T13:14:13;-1.10;99.90
11446;DHT22;5779;64.178;15.432;2024-02-04T13:17:02;-1.10;99.90
11446;DHT22;5779;64.178;15.432;2024-02-04T13:19:53;-1.10;99.90
11446;DHT22;5779;64.178;15.432;2024-02-04T13:22:41;-1.10;99.90
11446;DHT22;5779;64.178;15.432;2024-02-04T13:25:30;-1.10;99.90
11446;DHT22;5779;64.178;15.432;2024-02-04T13:28:17;-1.10;99.90
11446;DHT22;5779;64.178;15.432;2024-02-04T13:31:04;-1.10;99.90
11446;DHT22;5779;64.178;15.432;2024-02-04T13:33:53;-1.10;99.90
11446;DHT22;5779;64.178;15.432;2024-02-04T13:36:41;-1.10;99.90
11446;DHT22;5779;64.178;15.432;2024-02-04T13:39:30;-1.20;99.90
11446;DHT22;5779;64.178;15.432;2024-02-04T13:42:21;-1.30;99.90
11446;DHT22;5779;64.178;15.432;2024-02-04T13:45:08;-1.40;99.90
11446;DHT22;5779;64.178;15.432;2024-02-04T13:47:55;-1.40;99.90
11446;DHT22;5779;64.178;15.432;2024-02-04T13:50:43;-1.40;99.90
11446;DHT22;5779;64.178;15.432;2024-02-04T13:53:30;-1.40;99.90
11446;DHT22;5779;64.178;15.432;2024-02-04T13:56:20;-1.40;99.90
11446;DHT22;5779;64.178;15.432;2024-02-04T13:59:11;-1.30;99.90
11446;DHT22;5779;64.178;15.432;2024-02-04T14:02:03;-1.30;99.90
11446;DHT22;5779;64.178;15.432;2024-02-04T14:04:52;-1.40;99.90
11446;DHT22;5779;64.178;15.432;2024-02-04T14:07:42;-1.40;99.90
11446;DHT22;5779;64.178;15.432;2024-02-04T14:10:32;-1.40;99.90
11446;DHT22;5779;64.178;15.432;2024-02-04T14:13:24;-1.50;99.90
11446;DHT22;5779;64.178;15.432;2024-02-04T14:16:16;-1.50;99.90
11446;DHT22;5779;64.178;15.432;2024-02-04T14:19:02;-1.50;99.90
11446;DHT22;5779;64.178;15.432;2024-02-04T14:21:50;-1.50;99.90
11446;DHT22;5779;64.178;15.432;2024-02-04T14:24:37;-1.50;99.90
11446;DHT22;5779;64.178;15.432;2024-02-04T14:27:28;-1.50;99.90
11446;DHT22;5779;64.178;15.432;2024-02-04T14:30:17;-1.50;99.90
11446;DHT22;5779;64.178;15.432;2024-02-04T14:33:06;-1.60;99.90
11446;DHT22;5779;64.178;15.432;2024-02-04T14:35:54;-1.50;99.90
11446;DHT22;5779;64.178;15.432;2024-02-04T14:38:44;-1.60;99.90
11446;DHT22;5779;64.178;15.432;2024-02-04T14:41:35;-1.60;99.90
11446;DHT22;5779;64.178;15.432;2024-02-04T14:44:23;-1.60;99.90
11446;DHT22;5779;64.178;15.432;2024-02-04T14:47:13;-1.60;99.90
11446;DHT22;5779;64.178;15.432;2024-02-04T14:50:02;-1.70;99.90
11446;DHT22;5779;64.178;15.432;2024-02-04T14:52:54;-1.70;99.90
11446;DHT22;5779;64.178;15.432;2024-02-04T14:55:42;-1.70;99.90
11446;DHT22;5779;64.178;15.432;2024-02-04T14:58:32;-1.60;99.90
11446;DHT22;5779;64.178;15.432;2024-02-04T15:01:24;-1.70;99.90
11446;DHT22;5779;64.178;15.432;2024-02-04T15:04:14;-1.70;99.90
11446;DHT22;5779;64.178;15.432;2024-02-04T15:07:04;-1.80;99.90
11446;DHT22;5779;64.178;15.432;2024-02-04T15:09:56;-1.90;99.90
11446;DHT22;5779;64.178;15.432;2024-02-04T15:12:44;-1.90;99.90
11446;DHT22;5779;64.178;15.432;2024-02-04T15:15:35;-1.80;99.90
11446;DHT22;5779;64.178;15.432;2024-02-04T15:18:26;-1.90;99.90
11446;DHT22;5779;64.178;15.432;2024-02-04T15:21:15;-1.90;99.90
11446;DHT22;5779;64.178;15.432;2024-02-04T15:24:06;-1.90;99.90
11446;DHT22;5779;64.178;15.432;2024-02-04T15:26:56;-2.00;99.90
11446;DHT22;5779;64.178;15.432;2024-02-04T15:29:48;-2.00;99.90
11446;DHT22;5779;64.178;15.432;2024-02-04T15:32:35;-2.00;99.90
11446;DHT22;5779;64.178;15.432;2024-02-04T15:35:25;-2.10;99.90
11446;DHT22;5779;64.178;15.432;2024-02-04T15:38:12;-2.10;99.90
11446;DHT22;5779;64.178;15.432;2024-02-04T15:41:01;-2.10;99.90
11446;DHT22;5779;64.178;15.432;2024-02-04T15:43:47;-2.10;99.90
11446;DHT22;5779;64.178;15.432;2024-02-04T15:46:35;-2.10;99.90
11446;DHT22;5779;64.178;15.432;2024-02-04T15:49:26;-2.20;99.90
11446;DHT22;5779;64.178;15.432;2024-02-04T15:52:15;-2.30;99.90
11446;DHT22;5779;64.178;15.432;2024-02-04T15:55:02;-2.30;99.90
11446;DHT22;5779;64.178;15.432;2024-02-04T15:57:52;-2.30;99.90
11446;DHT22;5779;64.178;15.432;2024-02-04T16:00:41;-2.30;99.90
11446;DHT22;5779;64.178;15.432;2024-02-04T16:03:33;-2.40;99.90
11446;DHT22;5779;64.178;15.432;2024-02-04T16:06:21;-2.50;99.90
11446;DHT22;5779;64.178;15.432;2024-02-04T16:09:13;-2.40;99.90
11446;DHT22;5779;64.178;15.432;2024-02-04T16:12:08;-2.50;99.90
11446;DHT22;5779;64.178;15.432;2024-02-04T16:14:58;-2.50;99.90
11446;DHT22;5779;64.178;15.432;2024-02-04T16:17:48;-2.50;99.90
11446;DHT22;5779;64.178;15.432;2024-02-04T16:20:37;-2.50;99.90
11446;DHT22;5779;64.178;15.432;2024-02-04T16:23:25;-2.60;99.90
11446;DHT22;5779;64.178;15.432;2024-02-04T16:26:14;-2.60;99.90
11446;DHT22;5779;64.178;15.432;2024-02-04T16:29:01;-2.70;99.90
11446;DHT22;5779;64.178;15.432;2024-02-04T16:31:49;-2.80;99.90
11446;DHT22;5779;64.178;15.432;2024-02-04T16:34:38;-2.90;99.90
11446;DHT22;5779;64.178;15.432;2024-02-04T16:37:28;-2.90;99.90
11446;DHT22;5779;64.178;15.432;2024-02-04T16:40:14;-3.00;99.90
11446;DHT22;5779;64.178;15.432;2024-02-04T16:43:03;-3.00;99.90
11446;DHT22;5779;64.178;15.432;2024-02-04T16:45:49;-3.10;99.90
11446;DHT22;5779;64.178;15.432;2024-02-04T16:48:38;-3.20;99.90
11446;DHT22;5779;64.178;15.432;2024-02-04T16:51:29;-3.30;99.90
11446;DHT22;5779;64.178;15.432;2024-02-04T16:54:22;-3.20;99.90
11446;DHT22;5779;64.178;15.432;2024-02-04T16:57:13;-3.20;99.90
11446;DHT22;5779;64.178;15.432;2024-02-04T17:00:06;-3.30;99.90
11446;DHT22;5779;64.178;15.432;2024-02-04T17:02:55;-3.40;99.90
11446;DHT22;5779;64.178;15.432;2024-02-04T17:05:44;-3.40;99.90
11446;DHT22;5779;64.178;15.432;2024-02-04T17:08:31;-3.50;99.90
11446;DHT22;5779;64.178;15.432;2024-02-04T17:11:18;-3.50;99.90
11446;DHT22;5779;64.178;15.432;2024-02-04T17:14:06;-3.50;99.90
11446;DHT22;5779;64.178;15.432;2024-02-04T17:16:59;-3.60;99.90
11446;DHT22;5779;64.178;15.432;2024-02-04T17:20:02;-3.80;99.90
11446;DHT22;5779;64.178;15.432;2024-02-04T17:22:59;-3.90;99.90
11446;DHT22;5779;64.178;15.432;2024-02-04T17:25:54;-3.80;99.90
11446;DHT22;5779;64.178;15.432;2024-02-04T17:28:42;-3.90;99.90
11446;DHT22;5779;64.178;15.432;2024-02-04T17:31:30;-4.00;99.90
11446;DHT22;5779;64.178;15.432;2024-02-04T17:34:17;-3.80;99.90
11446;DHT22;5779;64.178;15.432;2024-02-04T17:37:04;-3.70;99.90
11446;DHT22;5779;64.178;15.432;2024-02-04T17:39:52;-3.90;99.90
11446;DHT22;5779;64.178;15.432;2024-02-04T17:42:39;-3.90;99.90
11446;DHT22;5779;64.178;15.432;2024-02-04T17:45:26;-4.00;99.90
11446;DHT22;5779;64.178;15.432;2024-02-04T17:48:12;-4.00;99.90
11446;DHT22;5779;64.178;15.432;2024-02-04T17:50:59;-4.20;99.90
11446;DHT22;5779;64.178;15.432;2024-02-04T17:53:46;-4.30;99.90
11446;DHT22;5779;64.178;15.432;2024-02-04T17:56:34;-4.20;99.90